Terminal Aerodrome Forecast
Issued by NWS Cleveland, OH

Home | Current Version | Previous Version | Graphics & Text | Print | Product List | Glossary On
Versions: 1 2 3 4 5 6 7 8 9 10 11 12 13 14 15 16 17 18 19 20 21 22 23
000
FTUS41 KCLE 201720
TAFTOL
TAF
KTOL 201720Z 2018/2118 21017KT 6SM -SHRA SCT035 BKN050
     FM210300 20014G23KT P6SM -SHRA OVC070
     FM210500 21014G23KT 5SM SHRA OVC020
     FM211100 30013G21KT 4SM SHRA OVC005
     FM211600 32009KT 6SM SHRA OVC045=

USA.gov is the U.S. government's official web portal to all federal, state and local government web resources and services.